Time;durP1;ratioP1;P1;durP2;ratioP2;P2;SDS_P1;SDS_P2;PMS_P1;PMS_P2;Temp;Humidity;BMP_temperature;BMP_pressure;BME280_temperature;BME280_humidity;BME280_pressure;Samples;Min_cycle;Max_cycle;Signal;HPM_P1;HPM_P2
2023/11/26 00:02:02;;;;;;;7.13;4.47;;;24.70;99.90;;;;;;5075054;28;20127;-47
2023/11/26 00:04:28;;;;;;;7.88;5.15;;;24.70;99.90;;;;;;5074016;28;20056;-47
2023/11/26 00:06:53;;;;;;;6.97;5.20;;;24.70;99.90;;;;;;5075416;28;20032;-48
2023/11/26 00:09:22;;;;;;;6.93;4.85;;;24.70;99.90;;;;;;5075310;28;20027;-47
2023/11/26 00:11:48;;;;;;;7.85;5.63;;;24.70;99.90;;;;;;5075268;28;20111;-47
2023/11/26 00:14:14;;;;;;;11.20;4.53;;;24.60;99.90;;;;;;5073719;28;20385;-47
2023/11/26 00:16:40;;;;;;;9.05;5.40;;;24.60;99.90;;;;;;5075201;28;20036;-47
2023/11/26 00:19:06;;;;;;;5.78;4.22;;;24.60;99.90;;;;;;5074970;28;20025;-47
2023/11/26 00:21:32;;;;;;;9.27;5.22;;;24.60;99.90;;;;;;5074809;28;22356;-47
2023/11/26 00:23:58;;;;;;;6.40;4.63;;;24.50;99.90;;;;;;5075169;28;20051;-48
2023/11/26 00:26:25;;;;;;;9.05;5.20;;;24.50;99.90;;;;;;5074915;28;20024;-47
2023/11/26 00:28:51;;;;;;;5.22;4.15;;;24.50;99.90;;;;;;5074826;28;20028;-47
2023/11/26 00:31:16;;;;;;;6.32;4.68;;;24.50;99.90;;;;;;5073920;28;20096;-48
2023/11/26 00:33:45;;;;;;;7.25;4.60;;;24.50;99.90;;;;;;5074713;28;20072;-48
2023/11/26 00:36:21;;;;;;;7.30;4.47;;;24.50;99.90;;;;;;5073420;28;20112;-47
2023/11/26 00:38:47;;;;;;;6.68;4.63;;;24.40;99.90;;;;;;5074627;28;20024;-48
2023/11/26 00:41:13;;;;;;;7.25;4.35;;;24.40;99.90;;;;;;5074536;28;20032;-48
2023/11/26 00:43:40;;;;;;;5.53;4.20;;;24.40;99.90;;;;;;5074539;28;20036;-48
2023/11/26 00:46:06;;;;;;;6.32;4.07;;;24.40;99.90;;;;;;5074646;28;20025;-47
2023/11/26 00:48:31;;;;;;;6.75;4.55;;;24.40;99.90;;;;;;5074353;28;20032;-47
2023/11/26 00:50:57;;;;;;;5.90;4.20;;;24.30;99.90;;;;;;5074593;28;20411;-48
2023/11/26 00:53:24;;;;;;;7.20;4.57;;;24.30;99.90;;;;;;5074410;28;20552;-48
2023/11/26 00:55:50;;;;;;;6.32;4.53;;;24.30;99.90;;;;;;5074363;28;20499;-48
2023/11/26 00:58:16;;;;;;;4.78;4.15;;;24.30;99.90;;;;;;5074395;28;20028;-47
2023/11/26 01:00:42;;;;;;;5.75;4.05;;;24.30;99.90;;;;;;5074169;28;20529;-48
2023/11/26 01:03:08;;;;;;;5.80;4.45;;;24.30;99.90;;;;;;5074061;28;20036;-48
2023/11/26 01:05:34;;;;;;;8.35;4.80;;;24.30;99.90;;;;;;5074172;28;20154;-47
2023/11/26 01:08:03;;;;;;;6.55;4.18;;;24.30;99.90;;;;;;5072945;28;20029;-48
2023/11/26 01:10:29;;;;;;;4.90;3.72;;;24.30;99.90;;;;;;5074208;28;20091;-48
2023/11/26 01:12:55;;;;;;;6.35;3.83;;;24.30;99.90;;;;;;5074450;28;20472;-48
2023/11/26 01:15:21;;;;;;;6.03;4.20;;;24.30;99.90;;;;;;5073827;28;20024;-48
2023/11/26 01:17:47;;;;;;;4.47;3.50;;;24.20;99.90;;;;;;5073861;28;20035;-48
2023/11/26 01:20:13;;;;;;;5.93;3.70;;;24.20;99.90;;;;;;5073865;28;20025;-48
2023/11/26 01:22:39;;;;;;;6.85;3.85;;;24.20;99.90;;;;;;5073684;28;20523;-47
2023/11/26 01:25:06;;;;;;;6.70;4.25;;;24.10;99.90;;;;;;5074538;28;20147;-48
2023/11/26 01:27:32;;;;;;;6.25;3.60;;;24.10;99.90;;;;;;5072626;28;20017;-47
2023/11/26 01:29:58;;;;;;;5.95;4.03;;;24.10;99.90;;;;;;5089094;28;20099;-48
2023/11/26 01:32:25;;;;;;;5.68;3.88;;;24.10;99.90;;;;;;5091747;28;20108;-48
2023/11/26 01:34:51;;;;;;;6.10;3.92;;;24.10;99.90;;;;;;5091646;28;20089;-47
2023/11/26 01:42:44;;;;;;;5.38;3.97;;;24.00;99.90;;;;;;5398512;23;25123;-45
2023/11/26 01:45:11;;;;;;;6.43;3.92;;;24.00;99.90;;;;;;4974584;28;20451;-46
2023/11/26 01:47:38;;;;;;;4.57;3.75;;;24.00;99.90;;;;;;4974752;28;20019;-45
2023/11/26 01:50:09;;;;;;;5.63;3.78;;;24.10;99.90;;;;;;4974794;28;20034;-45
2023/11/26 01:52:35;;;;;;;5.32;3.67;;;24.00;99.90;;;;;;4974825;28;20023;-45
2023/11/26 01:55:01;;;;;;;6.00;4.18;;;24.00;99.90;;;;;;4989494;28;20022;-45
2023/11/26 01:57:27;;;;;;;5.38;3.72;;;24.00;99.90;;;;;;4974477;28;20049;-45
2023/11/26 01:59:53;;;;;;;6.53;3.83;;;24.00;99.90;;;;;;4974355;28;20081;-45
2023/11/26 02:02:19;;;;;;;5.25;3.50;;;23.90;99.90;;;;;;4974295;28;20039;-45
2023/11/26 02:04:45;;;;;;;4.70;3.30;;;23.90;99.90;;;;;;4989329;28;20034;-46
2023/11/26 02:07:12;;;;;;;5.95;3.67;;;23.90;99.90;;;;;;4974633;28;20027;-45
2023/11/26 02:09:38;;;;;;;5.85;4.47;;;23.90;99.90;;;;;;4974320;28;20027;-45
2023/11/26 02:12:08;;;;;;;4.22;3.58;;;23.90;99.90;;;;;;4974451;28;20069;-46
2023/11/26 02:14:34;;;;;;;6.35;3.70;;;23.90;99.90;;;;;;4974353;28;20443;-46
2023/11/26 02:17:00;;;;;;;5.80;3.15;;;23.90;99.90;;;;;;4974146;28;20027;-46
2023/11/26 02:19:34;;;;;;;4.90;3.30;;;23.90;99.90;;;;;;4974153;28;20039;-45
2023/11/26 02:22:01;;;;;;;4.60;3.25;;;23.80;99.90;;;;;;4974040;28;20098;-46
2023/11/26 02:24:31;;;;;;;4.90;3.63;;;23.80;99.90;;;;;;4974045;28;20110;-46
2023/11/26 02:26:57;;;;;;;5.78;3.50;;;23.80;99.90;;;;;;4974035;28;20257;-46
2023/11/26 02:29:23;;;;;;;5.40;3.33;;;23.80;99.90;;;;;;4973913;28;20034;-45
2023/11/26 02:31:50;;;;;;;4.97;3.63;;;23.80;99.90;;;;;;4974086;28;20027;-46
2023/11/26 02:34:16;;;;;;;4.68;3.70;;;23.80;99.90;;;;;;4973796;28;20022;-46
2023/11/26 02:36:42;;;;;;;4.70;3.03;;;23.70;99.90;;;;;;4973774;28;20031;-45
2023/11/26 02:39:09;;;;;;;3.53;2.75;;;23.70;99.90;;;;;;4988933;28;20019;-46
2023/11/26 02:41:35;;;;;;;4.47;3.00;;;23.70;99.90;;;;;;4974283;28;20463;-46
2023/11/26 02:44:02;;;;;;;5.40;2.92;;;23.70;99.90;;;;;;4973688;28;20059;-46
2023/11/26 02:46:27;;;;;;;4.43;2.78;;;23.70;99.90;;;;;;4988767;28;20483;-46
2023/11/26 02:48:53;;;;;;;4.60;3.10;;;23.70;99.90;;;;;;4973682;28;20034;-46
2023/11/26 02:51:19;;;;;;;4.05;3.05;;;23.60;99.90;;;;;;4988498;28;20450;-46
2023/11/26 02:53:45;;;;;;;6.38;3.28;;;23.60;99.90;;;;;;4973138;28;20058;-46
2023/11/26 02:56:13;;;;;;;6.38;3.63;;;23.60;99.90;;;;;;4973514;28;20089;-46
2023/11/26 02:58:42;;;;;;;4.30;2.95;;;23.60;99.90;;;;;;4973795;28;20023;-46
2023/11/26 03:01:15;;;;;;;3.25;2.60;;;23.60;99.90;;;;;;4973814;28;20383;-46
2023/11/26 03:03:44;;;;;;;3.47;2.35;;;23.60;99.90;;;;;;4973385;28;20089;-46
2023/11/26 03:06:11;;;;;;;3.20;2.55;;;23.60;99.90;;;;;;4973670;28;20023;-46
2023/11/26 03:08:38;;;;;;;3.95;2.55;;;23.60;99.90;;;;;;4973645;28;20030;-46
2023/11/26 03:13:49;;;;;;;4.30;3.00;;;23.50;99.90;;;;;;4973482;28;20498;-46
2023/11/26 03:16:15;;;;;;;6.00;3.05;;;23.50;99.90;;;;;;4973398;28;20027;-46
2023/11/26 03:18:41;;;;;;;8.02;2.90;;;23.50;99.90;;;;;;4973550;28;20482;-46
2023/11/26 03:21:10;;;;;;;6.00;3.00;;;23.50;99.90;;;;;;4973768;28;20042;-46
2023/11/26 03:23:35;;;;;;;7.00;3.05;;;23.50;99.90;;;;;;4973285;28;20041;-46
2023/11/26 03:26:01;;;;;;;4.00;2.60;;;23.50;99.90;;;;;;4973231;28;20126;-46
2023/11/26 03:28:27;;;;;;;4.45;2.92;;;23.50;99.90;;;;;;4973297;28;20030;-45
2023/11/26 03:30:54;;;;;;;3.22;2.20;;;23.40;99.90;;;;;;4973485;28;20031;-46
2023/11/26 03:33:20;;;;;;;4.32;2.53;;;23.40;99.90;;;;;;4973311;28;20027;-47
2023/11/26 03:35:46;;;;;;;3.63;2.67;;;23.40;99.90;;;;;;4988117;28;20619;-46
2023/11/26 03:38:12;;;;;;;4.20;2.38;;;23.40;99.90;;;;;;4973510;28;20097;-46
2023/11/26 03:40:39;;;;;;;4.20;2.85;;;23.40;99.90;;;;;;4973372;28;20030;-46
2023/11/26 03:43:05;;;;;;;3.47;2.20;;;23.40;99.90;;;;;;4972992;28;20050;-46
2023/11/26 03:45:31;;;;;;;9.95;2.80;;;23.40;99.90;;;;;;4973230;28;20174;-46
2023/11/26 03:47:59;;;;;;;4.40;2.50;;;23.40;99.90;;;;;;4973119;28;20074;-46
2023/11/26 03:50:24;;;;;;;3.58;2.40;;;23.30;99.90;;;;;;4987890;28;20034;-46
2023/11/26 03:52:50;;;;;;;4.28;2.58;;;23.30;99.90;;;;;;4973158;28;20034;-48
2023/11/26 03:55:16;;;;;;;5.32;2.70;;;23.30;99.90;;;;;;4973146;28;20046;-46
2023/11/26 03:57:43;;;;;;;3.88;2.67;;;23.30;99.90;;;;;;4973277;28;20029;-44
2023/11/26 04:00:12;;;;;;;5.63;2.33;;;23.30;99.90;;;;;;4973184;28;20387;-51
2023/11/26 04:02:38;;;;;;;4.07;2.20;;;23.30;99.90;;;;;;4973070;28;20530;-44
2023/11/26 04:05:04;;;;;;;6.90;2.45;;;23.30;99.90;;;;;;4973923;28;20054;-44
2023/11/26 04:07:31;;;;;;;6.03;2.50;;;23.30;99.90;;;;;;4976483;28;20537;-44
2023/11/26 04:09:57;;;;;;;4.00;2.38;;;23.30;99.90;;;;;;4976516;28;20471;-44
2023/11/26 04:12:23;;;;;;;3.22;2.65;;;23.20;99.90;;;;;;4977062;28;20110;-45
2023/11/26 04:14:54;;;;;;;5.43;2.35;;;23.30;99.90;;;;;;4976414;28;20062;-45
2023/11/26 04:17:20;;;;;;;6.53;2.70;;;23.20;99.90;;;;;;4976386;28;20057;-44
2023/11/26 04:19:49;;;;;;;3.55;2.17;;;23.20;99.90;;;;;;4991448;28;20022;-44
2023/11/26 04:22:17;;;;;;;5.97;2.17;;;23.20;99.90;;;;;;4976331;28;20038;-45
2023/11/26 04:24:43;;;;;;;6.18;2.63;;;23.20;99.90;;;;;;4976475;28;20027;-44
2023/11/26 04:27:09;;;;;;;4.78;2.63;;;23.20;99.90;;;;;;4974909;28;20504;-44
2023/11/26 04:29:35;;;;;;;4.57;2.30;;;23.10;99.90;;;;;;4976028;28;20487;-45
2023/11/26 04:32:01;;;;;;;5.15;2.03;;;23.10;99.90;;;;;;4976075;28;20033;-45
2023/11/26 04:34:27;;;;;;;7.68;3.33;;;23.20;99.90;;;;;;4976037;28;20022;-45
2023/11/26 04:36:53;;;;;;;3.92;2.47;;;23.10;99.90;;;;;;4976194;28;20030;-45
2023/11/26 04:39:19;;;;;;;6.20;2.22;;;23.10;99.90;;;;;;4974626;28;20026;-45
2023/11/26 04:41:45;;;;;;;6.88;2.50;;;23.10;99.90;;;;;;4975572;28;20043;-45
2023/11/26 04:44:10;;;;;;;2.88;2.20;;;23.10;99.90;;;;;;4975672;28;20039;-45
2023/11/26 04:46:36;;;;;;;6.57;2.55;;;23.10;99.90;;;;;;4975658;28;20038;-45
2023/11/26 04:49:03;;;;;;;3.97;2.08;;;23.10;99.90;;;;;;4975728;28;20105;-45
2023/11/26 04:51:30;;;;;;;3.22;2.08;;;23.10;99.90;;;;;;4990482;28;20029;-45
2023/11/26 04:53:56;;;;;;;4.25;2.45;;;23.10;99.90;;;;;;4975594;28;20430;-45
2023/11/26 04:56:22;;;;;;;2.88;1.92;;;23.10;99.90;;;;;;4975470;28;20027;-45
2023/11/26 04:58:48;;;;;;;4.57;2.42;;;23.10;99.90;;;;;;4974890;28;20106;-45
2023/11/26 05:01:16;;;;;;;3.85;2.72;;;23.10;99.90;;;;;;4974252;28;20114;-45
2023/11/26 05:03:42;;;;;;;3.72;2.17;;;23.00;99.90;;;;;;4975511;28;20034;-44
2023/11/26 05:06:09;;;;;;;7.28;2.40;;;23.00;99.90;;;;;;4975491;28;20086;-45
2023/11/26 05:08:35;;;;;;;4.43;2.22;;;23.00;99.90;;;;;;4974917;28;20403;-45
2023/11/26 05:11:01;;;;;;;5.88;2.63;;;23.00;99.90;;;;;;4975523;28;20033;-45
2023/11/26 05:13:28;;;;;;;5.03;2.42;;;23.00;99.90;;;;;;4975229;28;20383;-45
2023/11/26 05:15:54;;;;;;;5.88;2.40;;;23.00;99.90;;;;;;4974927;28;20033;-45
2023/11/26 05:18:22;;;;;;;5.82;2.55;;;23.00;99.90;;;;;;4975365;28;20023;-45
2023/11/26 05:20:48;;;;;;;4.25;2.10;;;23.00;99.90;;;;;;4975174;28;20034;-45
2023/11/26 05:23:14;;;;;;;4.90;2.25;;;23.00;99.90;;;;;;4975251;28;20038;-46
2023/11/26 05:25:40;;;;;;;3.70;2.30;;;23.00;99.90;;;;;;4975217;28;20328;-45
2023/11/26 05:28:06;;;;;;;3.63;1.80;;;23.00;99.90;;;;;;4975050;28;20478;-45
2023/11/26 05:30:31;;;;;;;4.85;2.15;;;22.90;99.90;;;;;;4975091;28;20029;-45
2023/11/26 05:32:57;;;;;;;3.75;2.55;;;22.90;99.90;;;;;;4975058;28;20426;-46
2023/11/26 05:35:27;;;;;;;4.45;2.40;;;22.90;99.90;;;;;;4975054;28;20029;-45
2023/11/26 05:37:54;;;;;;;4.82;2.78;;;22.90;99.90;;;;;;4974896;28;20054;-45
2023/11/26 05:40:21;;;;;;;4.45;2.35;;;22.90;99.90;;;;;;4974764;28;20034;-45
2023/11/26 05:42:46;;;;;;;3.00;2.45;;;22.90;99.90;;;;;;4974824;28;20102;-45
2023/11/26 05:45:12;;;;;;;3.90;1.50;;;22.90;99.90;;;;;;4974844;28;20026;-45
2023/11/26 05:47:38;;;;;;;6.30;2.03;;;22.90;99.90;;;;;;4974842;28;20138;-45
2023/11/26 05:50:05;;;;;;;3.90;2.22;;;22.90;99.90;;;;;;4974677;28;20042;-46
2023/11/26 05:52:31;;;;;;;3.03;1.90;;;22.90;99.90;;;;;;4974715;28;20022;-45
2023/11/26 05:54:57;;;;;;;4.20;2.55;;;22.90;99.90;;;;;;4974469;28;20031;-45
2023/11/26 05:57:23;;;;;;;3.33;2.25;;;22.90;99.90;;;;;;4974628;28;20157;-44
2023/11/26 05:59:49;;;;;;;6.10;2.40;;;22.90;99.90;;;;;;4974761;28;20430;-45
2023/11/26 06:02:15;;;;;;;7.65;3.17;;;22.80;99.90;;;;;;4973618;28;20463;-45
2023/11/26 06:04:41;;;;;;;5.13;2.20;;;22.80;99.90;;;;;;4974467;28;20051;-45
2023/11/26 06:07:08;;;;;;;4.60;2.50;;;22.80;99.90;;;;;;4974361;28;20386;-45
2023/11/26 06:09:34;;;;;;;3.67;2.38;;;22.80;99.90;;;;;;4974325;28;20027;-45
2023/11/26 06:12:00;;;;;;;4.50;2.25;;;22.80;99.90;;;;;;4973919;28;20062;-44
2023/11/26 06:14:26;;;;;;;4.20;1.83;;;22.80;99.90;;;;;;4972473;28;20057;-45
2023/11/26 06:16:52;;;;;;;3.55;1.88;;;22.80;99.90;;;;;;4974185;28;20426;-45
2023/11/26 06:19:17;;;;;;;3.67;2.13;;;22.80;99.90;;;;;;4974343;28;20022;-45
2023/11/26 06:21:43;;;;;;;3.33;2.20;;;22.80;99.90;;;;;;4973986;28;20089;-45
2023/11/26 06:24:09;;;;;;;3.70;2.20;;;22.80;99.90;;;;;;4974013;28;20078;-45
2023/11/26 06:26:37;;;;;;;3.60;1.70;;;22.80;99.90;;;;;;4973972;28;20041;-45
2023/11/26 06:29:05;;;;;;;3.22;2.22;;;22.80;99.90;;;;;;4973525;28;20054;-45
2023/11/26 06:31:31;;;;;;;3.45;1.75;;;22.70;99.90;;;;;;4973928;28;20055;-45
2023/11/26 06:33:57;;;;;;;4.00;1.85;;;22.80;99.90;;;;;;4973934;28;20078;-45
2023/11/26 06:36:25;;;;;;;5.07;2.20;;;22.70;99.90;;;;;;4973888;28;20038;-45
2023/11/26 06:38:52;;;;;;;2.97;1.92;;;22.70;99.90;;;;;;4973952;28;20038;-45
2023/11/26 06:41:27;;;;;;;3.25;1.90;;;22.70;99.90;;;;;;4973972;28;20027;-45
2023/11/26 06:43:54;;;;;;;3.17;1.98;;;22.70;99.90;;;;;;4973757;28;20121;-45
2023/11/26 06:46:22;;;;;;;3.47;1.90;;;22.70;99.90;;;;;;4973844;28;20124;-45
2023/11/26 06:48:48;;;;;;;4.03;2.33;;;22.70;99.90;;;;;;4973911;28;20031;-45
2023/11/26 06:51:14;;;;;;;3.25;2.00;;;22.70;99.90;;;;;;4973503;28;20078;-45
2023/11/26 06:53:40;;;;;;;2.17;1.70;;;22.70;99.90;;;;;;4972211;28;20038;-45
2023/11/26 06:56:07;;;;;;;2.80;2.08;;;22.70;99.90;;;;;;4973545;28;20439;-45
2023/11/26 06:58:40;;;;;;;6.35;2.00;;;22.60;99.90;;;;;;4973496;28;20027;-47
2023/11/26 07:01:06;;;;;;;6.18;2.38;;;22.60;99.90;;;;;;4973523;28;20023;-44
2023/11/26 07:03:34;;;;;;;4.35;2.90;;;22.60;99.90;;;;;;4973416;28;20486;-44
2023/11/26 07:06:01;;;;;;;8.15;3.70;;;22.60;99.90;;;;;;4973522;28;20034;-47
2023/11/26 07:08:28;;;;;;;2.90;2.25;;;22.60;99.90;;;;;;4973528;28;20486;-44
2023/11/26 07:10:54;;;;;;;6.18;2.92;;;22.60;99.90;;;;;;4973353;28;20023;-45
2023/11/26 07:13:20;;;;;;;4.40;3.00;;;22.60;99.90;;;;;;4973537;28;20050;-45
2023/11/26 07:15:47;;;;;;;5.80;2.80;;;22.50;99.90;;;;;;4973424;28;20382;-45
2023/11/26 07:18:14;;;;;;;3.17;2.85;;;22.60;99.90;;;;;;4973337;28;20467;-45
2023/11/26 07:20:40;;;;;;;3.42;2.20;;;22.50;99.90;;;;;;4973337;28;20050;-45
2023/11/26 07:23:07;;;;;;;3.33;2.38;;;22.60;99.90;;;;;;4973188;28;20097;-44
2023/11/26 07:25:33;;;;;;;3.92;1.92;;;22.50;99.90;;;;;;4973226;28;20054;-45
2023/11/26 07:28:02;;;;;;;3.92;2.22;;;22.60;99.90;;;;;;4973139;28;20101;-45
2023/11/26 07:30:29;;;;;;;7.90;2.03;;;22.50;99.90;;;;;;4973245;28;20513;-45
2023/11/26 07:32:55;;;;;;;3.75;2.38;;;22.50;99.90;;;;;;4973071;28;20037;-46
2023/11/26 07:35:21;;;;;;;3.35;2.58;;;22.50;99.90;;;;;;4973546;28;20023;-45
2023/11/26 07:37:47;;;;;;;3.33;2.20;;;22.50;99.90;;;;;;4973167;28;20049;-45
2023/11/26 07:40:13;;;;;;;5.13;2.42;;;22.50;99.90;;;;;;4976190;28;20328;-45
2023/11/26 07:42:40;;;;;;;2.85;1.90;;;22.50;99.90;;;;;;4976787;28;20047;-45
2023/11/26 07:45:11;;;;;;;4.28;2.10;;;22.50;99.90;;;;;;4977019;28;20022;-45
2023/11/26 07:47:37;;;;;;;3.15;2.00;;;22.60;99.90;;;;;;4976899;28;20050;-46
2023/11/26 07:50:06;;;;;;;3.60;2.37;;;22.60;99.90;;;;;;4976849;28;20028;-45
2023/11/26 07:52:36;;;;;;;2.67;2.13;;;22.60;99.90;;;;;;4976826;28;20098;-46
2023/11/26 07:55:04;;;;;;;5.75;2.80;;;22.70;99.90;;;;;;4976811;28;20437;-45
2023/11/26 07:57:30;;;;;;;4.20;2.13;;;22.70;99.90;;;;;;4975481;28;20427;-46
2023/11/26 07:59:58;;;;;;;2.97;2.00;;;22.70;99.90;;;;;;4976552;28;20472;-46
2023/11/26 08:02:24;;;;;;;3.55;2.30;;;22.70;99.90;;;;;;4976768;28;20066;-47
2023/11/26 08:04:53;;;;;;;4.85;2.00;;;22.70;99.90;;;;;;4976613;28;20027;-46
2023/11/26 08:07:23;;;;;;;5.03;2.50;;;22.70;99.90;;;;;;4976506;28;20073;-45
2023/11/26 08:09:53;;;;;;;5.03;1.92;;;22.80;99.90;;;;;;4976476;28;20578;-47
2023/11/26 08:12:20;;;;;;;4.97;2.28;;;22.80;99.90;;;;;;4976412;28;20364;-45
2023/11/26 08:14:52;;;;;;;2.70;2.00;;;22.80;99.90;;;;;;4976306;28;20034;-45
2023/11/26 08:17:22;;;;;;;3.85;2.08;;;22.90;99.90;;;;;;4976262;28;20033;-46
2023/11/26 08:19:49;;;;;;;3.13;2.03;;;22.90;99.90;;;;;;4976390;28;20027;-46
2023/11/26 08:22:15;;;;;;;4.72;2.05;;;22.90;99.90;;;;;;4976173;28;20475;-46
2023/11/26 08:24:45;;;;;;;3.28;2.15;;;22.90;99.90;;;;;;4976102;28;20038;-46
2023/11/26 08:27:16;;;;;;;2.92;2.10;;;23.00;99.90;;;;;;4976018;28;20018;-46
2023/11/26 08:29:43;;;;;;;4.65;1.92;;;23.00;99.90;;;;;;4975908;28;20027;-46
2023/11/26 08:32:12;;;;;;;3.58;2.30;;;23.00;99.90;;;;;;4975955;28;20141;-46
2023/11/26 08:34:41;;;;;;;2.95;2.03;;;23.00;99.90;;;;;;4976052;28;20154;-46
2023/11/26 08:37:08;;;;;;;9.13;2.90;;;23.10;99.90;;;;;;4976051;28;20030;-46
2023/11/26 08:39:38;;;;;;;3.95;2.55;;;23.10;99.90;;;;;;4975951;28;20435;-46
2023/11/26 08:42:04;;;;;;;4.57;2.30;;;23.10;99.90;;;;;;4975759;28;20047;-46
2023/11/26 08:44:33;;;;;;;3.58;2.13;;;23.10;99.90;;;;;;4975842;28;20102;-45
2023/11/26 08:47:02;;;;;;;3.47;2.38;;;23.20;99.90;;;;;;4975830;28;20034;-45
2023/11/26 08:49:28;;;;;;;4.50;2.08;;;23.20;99.90;;;;;;4975973;28;20022;-45
2023/11/26 08:51:57;;;;;;;3.30;2.00;;;23.20;99.90;;;;;;4975297;28;20038;-46
2023/11/26 08:54:23;;;;;;;2.70;2.17;;;23.30;99.90;;;;;;4975784;28;20419;-45
2023/11/26 08:56:52;;;;;;;3.33;1.90;;;23.30;99.90;;;;;;4975673;28;20175;-46
2023/11/26 08:59:18;;;;;;;4.32;2.50;;;23.30;99.90;;;;;;4975565;28;20578;-46
2023/11/26 09:01:45;;;;;;;4.22;2.33;;;23.30;99.90;;;;;;4975421;28;20105;-46
2023/11/26 09:04:11;;;;;;;3.42;2.45;;;23.40;99.90;;;;;;4975477;28;20049;-45
2023/11/26 09:06:39;;;;;;;3.08;2.30;;;23.40;99.90;;;;;;4975452;28;20471;-46
2023/11/26 09:09:07;;;;;;;2.08;1.80;;;23.40;99.90;;;;;;4975376;28;20474;-46
2023/11/26 09:11:32;;;;;;;2.50;2.17;;;23.40;99.90;;;;;;4975412;28;20019;-46
2023/11/26 09:13:58;;;;;;;3.95;2.28;;;23.50;99.90;;;;;;4975420;28;20114;-45
2023/11/26 09:16:25;;;;;;;4.60;2.25;;;23.50;99.90;;;;;;4975394;28;20035;-45
2023/11/26 09:18:51;;;;;;;4.60;2.90;;;23.50;99.90;;;;;;4975260;28;20030;-45
2023/11/26 09:21:18;;;;;;;4.38;2.63;;;23.60;99.90;;;;;;4975255;28;20034;-45
2023/11/26 09:23:44;;;;;;;5.80;2.60;;;23.60;99.90;;;;;;4975087;28;20121;-45
2023/11/26 09:26:11;;;;;;;4.65;2.60;;;23.60;99.90;;;;;;4973880;28;20434;-46
2023/11/26 09:28:37;;;;;;;7.77;2.77;;;23.60;99.90;;;;;;4989955;28;20443;-45
2023/11/26 09:31:08;;;;;;;3.90;2.30;;;23.70;99.90;;;;;;4975097;28;20112;-44
2023/11/26 09:33:36;;;;;;;7.97;3.13;;;23.70;99.90;;;;;;4974980;28;20208;-45
2023/11/26 09:36:04;;;;;;;4.78;2.42;;;23.70;99.90;;;;;;4974766;28;20054;-45
2023/11/26 09:38:30;;;;;;;5.47;3.47;;;23.80;99.90;;;;;;4975158;28;20026;-46
2023/11/26 09:40:55;;;;;;;4.55;2.20;;;23.80;99.90;;;;;;4974745;28;20410;-46
2023/11/26 09:43:22;;;;;;;4.80;2.90;;;23.80;99.90;;;;;;4974454;28;20142;-45
2023/11/26 09:45:48;;;;;;;4.82;3.00;;;23.90;99.90;;;;;;4974737;28;20026;-48
2023/11/26 09:48:14;;;;;;;5.43;2.65;;;23.90;99.90;;;;;;4974570;28;20042;-46
2023/11/26 09:50:40;;;;;;;4.60;2.63;;;23.90;99.90;;;;;;4974712;28;20019;-46
2023/11/26 09:53:07;;;;;;;3.33;2.20;;;24.00;99.90;;;;;;4974549;28;20027;-46
2023/11/26 09:55:42;;;;;;;4.35;2.58;;;24.00;99.90;;;;;;4974560;28;20027;-45
2023/11/26 09:58:08;;;;;;;4.57;2.58;;;24.00;99.90;;;;;;4974455;28;20031;-45
2023/11/26 10:00:34;;;;;;;3.92;2.53;;;24.10;99.90;;;;;;4974552;28;20031;-45
2023/11/26 10:03:02;;;;;;;4.38;2.50;;;24.10;99.90;;;;;;4973650;28;20038;-46
2023/11/26 10:05:28;;;;;;;4.18;2.60;;;24.20;99.90;;;;;;4974543;28;20049;-45
2023/11/26 10:07:54;;;;;;;5.60;2.88;;;24.20;99.90;;;;;;4974347;28;20273;-45
2023/11/26 10:10:23;;;;;;;4.60;3.05;;;24.30;99.90;;;;;;4973136;28;20043;-45
2023/11/26 10:12:53;;;;;;;8.02;2.92;;;24.30;99.90;;;;;;4974241;28;20023;-46
2023/11/26 10:15:21;;;;;;;6.22;3.38;;;24.40;99.90;;;;;;4974232;28;20031;-46
2023/11/26 10:18:06;;;;;;;;;;;24.40;99.90;;;;;;4974591;28;20022;-46
2023/11/26 10:20:42;;;;;;;5.68;2.97;;;24.50;99.90;;;;;;4974346;28;19948;-46
2023/11/26 10:23:10;;;;;;;10.35;3.65;;;24.50;99.90;;;;;;4973923;28;20093;-46
2023/11/26 10:25:42;;;;;;;;;;;24.60;99.90;;;;;;4974400;28;20051;-45
2023/11/26 10:28:15;;;;;;;4.13;2.67;;;24.60;99.90;;;;;;4973843;28;19906;-46
2023/11/26 10:30:42;;;;;;;4.93;3.00;;;24.70;99.90;;;;;;4974099;28;20365;-46
2023/11/26 10:33:09;;;;;;;8.05;3.10;;;24.70;99.90;;;;;;4988795;28;20031;-46
2023/11/26 10:35:49;;;;;;;6.82;3.08;;;24.80;99.90;;;;;;4973828;28;20047;-46
2023/11/26 10:38:24;;;;;;;6.18;3.10;;;24.80;99.90;;;;;;4972408;28;20027;-46
2023/11/26 10:40:51;;;;;;;4.82;3.30;;;24.80;99.90;;;;;;4973735;28;20043;-46
2023/11/26 10:43:20;;;;;;;7.22;3.40;;;24.90;99.90;;;;;;4973390;28;20399;-46
2023/11/26 10:45:47;;;;;;;7.20;3.35;;;24.90;99.90;;;;;;4973634;28;20506;-46
2023/11/26 10:48:15;;;;;;;5.55;3.58;;;24.90;99.90;;;;;;4973649;28;20033;-46
2023/11/26 10:50:48;;;;;;;7.60;3.05;;;25.00;99.90;;;;;;4988581;28;20376;-45
2023/11/26 10:53:49;;;;;;;6.15;3.55;;;25.00;99.90;;;;;;4973475;28;20081;-45
2023/11/26 10:56:21;;;;;;;6.90;3.03;;;25.10;99.90;;;;;;4973193;28;20151;-46
2023/11/26 10:58:48;;;;;;;7.63;2.85;;;25.10;99.90;;;;;;4972223;28;20031;-45
2023/11/26 11:01:15;;;;;;;5.45;2.95;;;25.10;99.90;;;;;;4973457;28;20031;-46
2023/11/26 11:03:42;;;;;;;5.55;3.17;;;25.20;99.90;;;;;;4973436;28;20490;-45
2023/11/26 11:06:10;;;;;;;5.72;3.22;;;25.20;99.90;;;;;;4973440;28;20356;-46
2023/11/26 11:08:40;;;;;;;7.10;2.92;;;25.20;99.90;;;;;;4973329;28;20031;-46
2023/11/26 11:11:24;;;;;;;9.93;3.22;;;25.30;99.90;;;;;;4973392;28;20031;-46
2023/11/26 11:13:51;;;;;;;6.00;3.00;;;25.30;99.90;;;;;;4972962;28;20023;-46
2023/11/26 11:16:18;;;;;;;;;;;25.40;99.90;;;;;;4973783;28;20057;-46
2023/11/26 11:18:45;;;;;;;6.45;3.20;;;25.40;99.90;;;;;;4973388;28;19929;-46
2023/11/26 11:21:16;;;;;;;4.72;2.80;;;25.40;99.90;;;;;;4973269;28;20511;-46
2023/11/26 11:23:49;;;;;;;5.75;3.25;;;25.40;99.90;;;;;;4973100;28;20061;-46
2023/11/26 11:26:17;;;;;;;11.35;3.80;;;25.50;99.90;;;;;;4973113;28;20030;-45
2023/11/26 11:29:04;;;;;;;8.85;3.10;;;25.50;99.90;;;;;;4973204;28;20541;-46
2023/11/26 11:31:48;;;;;;;7.20;3.80;;;25.50;99.90;;;;;;4972974;28;20039;-46
2023/11/26 11:34:14;;;;;;;7.82;2.85;;;25.50;99.90;;;;;;4973062;28;20384;-45
2023/11/26 11:36:44;;;;;;;8.10;3.38;;;25.60;99.90;;;;;;4972963;28;20031;-46
2023/11/26 11:39:14;;;;;;;6.88;3.45;;;25.60;99.90;;;;;;4973353;28;20026;-47
2023/11/26 11:41:58;;;;;;;5.20;3.13;;;25.60;99.90;;;;;;4972916;28;20015;-47
2023/11/26 11:44:35;;;;;;;6.82;2.92;;;25.60;99.90;;;;;;4972716;28;20081;-45
2023/11/26 11:47:05;;;;;;;6.78;3.58;;;25.70;99.90;;;;;;4972910;28;20023;-46
2023/11/26 11:50:00;;;;;;;9.38;3.60;;;25.70;99.90;;;;;;4973010;28;20035;-45
2023/11/26 11:52:26;;;;;;;6.38;3.35;;;25.70;99.90;;;;;;4974076;28;20081;-45
2023/11/26 11:55:03;;;;;;;8.18;3.90;;;25.80;99.90;;;;;;4966338;28;20066;-46
2023/11/26 11:57:37;;;;;;;;;;;25.80;99.90;;;;;;4970665;28;20026;-46
2023/11/26 12:00:08;;;;;;;9.77;3.88;;;25.90;99.90;;;;;;4984460;28;20314;-45
2023/11/26 12:02:34;;;;;;;6.93;4.00;;;25.90;99.90;;;;;;4968998;28;20035;-47
2023/11/26 12:05:00;;;;;;;7.68;4.07;;;25.90;99.90;;;;;;4970614;28;20027;-47
2023/11/26 12:07:31;;;;;;;6.15;3.53;;;25.90;99.90;;;;;;4968291;28;20073;-46
2023/11/26 12:10:01;;;;;;;9.00;2.97;;;26.00;99.90;;;;;;4970115;28;20370;-47
2023/11/26 12:12:27;;;;;;;5.85;3.25;;;26.00;99.90;;;;;;4968872;28;20058;-46
2023/11/26 12:14:54;;;;;;;7.35;3.15;;;26.00;99.90;;;;;;4969806;28;20433;-46
2023/11/26 12:17:21;;;;;;;6.70;3.80;;;26.00;99.90;;;;;;4969377;28;20475;-46
2023/11/26 12:19:48;;;;;;;7.68;3.55;;;26.10;99.90;;;;;;4985233;28;20027;-50
2023/11/26 12:22:14;;;;;;;;;;;26.10;99.90;;;;;;4970598;28;20133;-46
2023/11/26 12:24:40;;;;;;;9.35;3.70;;;26.10;99.90;;;;;;4969679;28;19993;-47
2023/11/26 12:27:08;;;;;;;9.52;3.47;;;26.20;99.90;;;;;;4970605;28;20023;-45
2023/11/26 12:29:35;;;;;;;;;;;26.20;99.90;;;;;;4973068;28;20416;-46
2023/11/26 12:32:05;;;;;;;6.28;3.10;;;26.20;99.90;;;;;;4973082;28;19917;-45
2023/11/26 12:34:39;;;;;;;6.03;3.22;;;26.30;99.90;;;;;;4973006;28;20046;-45
2023/11/26 12:37:11;;;;;;;8.20;3.75;;;26.20;99.90;;;;;;4971973;28;20026;-45
2023/11/26 12:39:41;;;;;;;7.00;3.70;;;26.30;99.90;;;;;;4971966;28;20062;-45
2023/11/26 12:42:07;;;;;;;8.32;4.00;;;26.30;99.90;;;;;;4971600;28;20042;-46
2023/11/26 12:44:33;;;;;;;4.82;2.85;;;26.30;99.90;;;;;;4972645;28;20034;-45
2023/11/26 12:47:09;;;;;;;7.22;3.05;;;26.40;99.90;;;;;;4971268;28;20050;-44
2023/11/26 12:49:35;;;;;;;10.98;3.53;;;26.40;99.90;;;;;;4971872;28;20069;-45
2023/11/26 12:52:01;;;;;;;7.63;3.13;;;26.40;99.90;;;;;;4972531;28;20046;-46
2023/11/26 12:54:27;;;;;;;22.92;5.53;;;26.40;99.90;;;;;;4988247;28;20054;-46
2023/11/26 12:56:55;;;;;;;15.98;3.85;;;26.40;99.90;;;;;;4972737;28;20395;-46
2023/11/26 12:59:21;;;;;;;14.20;4.63;;;26.40;99.90;;;;;;4972641;28;20069;-46